Time;durP1;ratioP1;P1;durP2;ratioP2;P2;SDS_P1;SDS_P2;PMS_P1;PMS_P2;Temp;Humidity;BMP_temperature;BMP_pressure;BME280_temperature;BME280_humidity;BME280_pressure;Samples;Min_cycle;Max_cycle;Signal;HPM_P1;HPM_P2
2024/02/07 00:02:07;;;;;;;;;;;4.30;100.00;;;;;;5007391;28;19929;-67
2024/02/07 00:04:34;;;;;;;;;;;4.30;100.00;;;;;;5011972;28;20027;-67
2024/02/07 00:07:01;;;;;;;;;;;4.30;100.00;;;;;;5006647;28;20382;-67
2024/02/07 00:09:28;;;;;;;;;;;4.30;100.00;;;;;;5007746;28;19930;-67
2024/02/07 00:11:55;;;;;;;;;;;4.30;100.00;;;;;;5007276;28;19929;-67
2024/02/07 00:14:22;;;;;;;;;;;4.30;100.00;;;;;;5010394;28;19933;-67
2024/02/07 00:16:49;;;;;;;;;;;4.30;100.00;;;;;;5007146;28;20461;-67
2024/02/07 00:19:15;;;;;;;;;;;4.30;100.00;;;;;;5014559;28;19929;-67
2024/02/07 00:21:42;;;;;;;;;;;4.30;100.00;;;;;;4984348;28;20495;-67
2024/02/07 00:24:09;;;;;;;;;;;4.30;100.00;;;;;;5008201;28;19929;-67
2024/02/07 00:26:36;;;;;;;;;;;4.30;100.00;;;;;;5011597;28;20005;-67
2024/02/07 00:29:03;;;;;;;;;;;4.30;100.00;;;;;;4989518;28;19972;-67
2024/02/07 00:31:30;;;;;;;;;;;4.30;100.00;;;;;;5006357;28;20086;-67
2024/02/07 00:33:57;;;;;;;;;;;4.30;100.00;;;;;;4988206;28;19936;-67
2024/02/07 00:36:24;;;;;;;;;;;4.40;100.00;;;;;;5015554;28;19929;-67
2024/02/07 00:38:51;;;;;;;;;;;4.30;100.00;;;;;;5007027;28;19929;-67
2024/02/07 00:41:18;;;;;;;;;;;4.30;100.00;;;;;;5005634;28;19969;-67
2024/02/07 00:43:45;;;;;;;;;;;4.40;100.00;;;;;;4996453;28;19926;-67
2024/02/07 00:46:12;;;;;;;;;;;4.40;100.00;;;;;;4990253;28;19934;-67
2024/02/07 00:48:39;;;;;;;;;;;4.40;100.00;;;;;;5006630;28;19944;-67
2024/02/07 00:51:07;;;;;;;;;;;4.40;100.00;;;;;;5007135;28;19925;-67
2024/02/07 00:53:33;;;;;;;;;;;4.40;100.00;;;;;;5007305;28;19929;-67
2024/02/07 00:56:00;;;;;;;;;;;4.40;100.00;;;;;;5011661;28;19944;-68
2024/02/07 00:58:27;;;;;;;;;;;4.40;100.00;;;;;;5008504;28;20635;-67
2024/02/07 01:00:54;;;;;;;;;;;4.40;100.00;;;;;;5006030;28;19936;-68
2024/02/07 01:03:21;;;;;;;;;;;4.40;100.00;;;;;;5023133;28;19926;-68
2024/02/07 01:05:48;;;;;;;;;;;4.40;100.00;;;;;;5018215;28;19976;-67
2024/02/07 01:08:15;;;;;;;;;;;4.40;100.00;;;;;;5008375;28;20305;-67
2024/02/07 01:10:42;;;;;;;;;;;4.40;100.00;;;;;;5006589;28;20011;-68
2024/02/07 01:13:09;;;;;;;;;;;4.40;100.00;;;;;;5006380;28;19936;-68
2024/02/07 01:15:36;;;;;;;;;;;4.40;100.00;;;;;;5005416;28;20461;-68
2024/02/07 01:18:04;;;;;;;;;;;4.40;100.00;;;;;;5001928;28;20008;-68
2024/02/07 01:20:31;;;;;;;;;;;4.40;100.00;;;;;;5008317;28;19934;-67
2024/02/07 01:22:58;;;;;;;;;;;4.40;100.00;;;;;;5006661;28;19988;-67
2024/02/07 01:39:22;;;;;;;;;;;4.40;100.00;;;;;;5018194;28;19967;-68
2024/02/07 01:41:58;;;;;;;;;;;4.40;100.00;;;;;;4992981;28;19936;-68
2024/02/07 01:44:26;;;;;;;;;;;4.50;100.00;;;;;;5005268;28;19929;-68
2024/02/07 01:47:11;;;;;;;;;;;4.50;100.00;;;;;;5005665;28;20424;-67
2024/02/07 01:49:42;;;;;;;;;;;4.40;100.00;;;;;;4988471;28;19934;-67
2024/02/07 01:52:10;;;;;;;;;;;4.50;100.00;;;;;;4988924;28;19985;-68
2024/02/07 01:54:39;;;;;;;;;;;4.40;100.00;;;;;;5006985;28;19979;-68
2024/02/07 01:57:06;;;;;;;;;;;4.40;100.00;;;;;;5009173;28;19930;-68
2024/02/07 01:59:34;;;;;;;;;;;4.40;100.00;;;;;;5009796;28;19930;-68
2024/02/07 02:02:03;;;;;;;;;;;4.40;100.00;;;;;;5010504;28;19979;-67
2024/02/07 02:04:31;;;;;;;;;;;4.40;100.00;;;;;;5008094;28;20386;-67
2024/02/07 02:06:58;;;;;;;;;;;4.50;100.00;;;;;;5008423;28;19936;-68
2024/02/07 02:09:25;;;;;;;;;;;4.40;100.00;;;;;;5011564;28;19929;-68
2024/02/07 02:11:52;;;;;;;;;;;4.40;100.00;;;;;;5006060;28;19975;-68
2024/02/07 02:14:19;;;;;;;;;;;4.50;100.00;;;;;;4993204;28;19947;-68
2024/02/07 02:16:46;;;;;;;;;;;4.50;100.00;;;;;;5019697;28;19925;-68
2024/02/07 02:19:17;;;;;;;;;;;4.50;100.00;;;;;;5017577;28;19929;-67
2024/02/07 02:22:05;;;;;;;;;;;4.50;100.00;;;;;;5009718;28;20635;-68
2024/02/07 02:24:51;;;;;;;;;;;4.50;100.00;;;;;;5012448;28;20004;-68
2024/02/07 02:27:25;;;;;;;;;;;4.50;100.00;;;;;;5016345;28;19929;-68
2024/02/07 02:29:58;;;;;;;;;;;4.60;100.00;;;;;;5009186;28;19929;-67
2024/02/07 02:32:27;;;;;;;;;;;4.60;100.00;;;;;;5009155;28;19933;-68
2024/02/07 02:34:54;;;;;;;;;;;4.60;100.00;;;;;;5009188;28;19936;-67
2024/02/07 02:37:21;;;;;;;;;;;4.60;100.00;;;;;;5017654;28;19925;-68
2024/02/07 02:39:52;;;;;;;;;;;4.60;100.00;;;;;;5009624;28;19929;-68
2024/02/07 02:42:18;;;;;;;;;;;4.60;100.00;;;;;;5008784;28;20294;-68
2024/02/07 02:44:45;;;;;;;;;;;4.60;100.00;;;;;;5008565;28;19983;-68
2024/02/07 02:47:13;;;;;;;;;;;4.60;100.00;;;;;;5024266;28;19929;-67
2024/02/07 02:49:41;;;;;;;;;;;4.60;100.00;;;;;;5013221;28;20204;-68
2024/02/07 02:52:08;;;;;;;;;;;4.60;100.00;;;;;;5012186;28;19929;-67
2024/02/07 02:54:36;;;;;;;;;;;4.60;100.00;;;;;;4990922;28;19929;-67
2024/02/07 02:57:05;;;;;;;;;;;4.60;100.00;;;;;;4993327;28;19930;-68
2024/02/07 02:59:35;;;;;;;;;;;4.60;100.00;;;;;;5007056;28;19965;-68
2024/02/07 03:02:09;;;;;;;;;;;4.60;100.00;;;;;;5010162;28;19925;-68
2024/02/07 03:04:41;;;;;;;;;;;4.60;100.00;;;;;;4995119;28;19936;-68
2024/02/07 03:09:53;;;;;;;;;;;4.60;100.00;;;;;;5008750;28;19929;-68
2024/02/07 03:12:20;;;;;;;;;;;4.60;100.00;;;;;;5008553;28;19992;-67
2024/02/07 03:14:47;;;;;;;;;;;4.50;100.00;;;;;;5013632;28;20349;-68
2024/02/07 03:17:14;;;;;;;;;;;4.50;100.00;;;;;;5017030;28;19937;-68
2024/02/07 03:19:41;;;;;;;;;;;4.50;100.00;;;;;;5008633;28;20453;-68
2024/02/07 03:22:09;;;;;;;;;;;4.50;100.00;;;;;;5009756;28;19929;-68
2024/02/07 03:24:36;;;;;;;;;;;4.50;100.00;;;;;;5007630;28;20301;-68
2024/02/07 03:27:03;;;;;;;;;;;4.50;100.00;;;;;;4998626;28;19929;-68
2024/02/07 03:29:30;;;;;;;;;;;4.50;100.00;;;;;;5008261;28;20028;-68
2024/02/07 03:31:56;;;;;;;;;;;4.50;100.00;;;;;;5008578;28;19992;-68
2024/02/07 03:34:23;;;;;;;;;;;4.50;100.00;;;;;;4990205;28;20028;-67
2024/02/07 03:36:50;;;;;;;;;;;4.50;100.00;;;;;;5015440;28;19929;-68
2024/02/07 03:39:17;;;;;;;;;;;4.50;100.00;;;;;;5008680;28;19941;-67
2024/02/07 03:41:46;;;;;;;;;;;4.50;100.00;;;;;;5008046;28;20366;-67
2024/02/07 03:44:12;;;;;;;;;;;4.50;100.00;;;;;;4994093;28;19929;-69
2024/02/07 03:46:40;;;;;;;;;;;4.50;100.00;;;;;;5012857;28;19984;-68
2024/02/07 03:49:07;;;;;;;;;;;4.40;100.00;;;;;;5014395;28;19979;-67
2024/02/07 03:51:35;;;;;;;;;;;4.50;100.00;;;;;;4994538;28;20704;-67
2024/02/07 03:54:07;;;;;;;;;;;4.40;100.00;;;;;;4988804;28;20248;-67
2024/02/07 03:56:34;;;;;;;;;;;4.40;100.00;;;;;;5007012;28;19935;-67
2024/02/07 03:59:02;;;;;;;;;;;4.40;100.00;;;;;;5007613;28;19972;-68
2024/02/07 04:01:29;;;;;;;;;;;4.30;100.00;;;;;;4988501;28;19963;-67
2024/02/07 04:03:57;;;;;;;;;;;4.30;100.00;;;;;;4990167;28;19933;-67
2024/02/07 04:06:24;;;;;;;;;;;4.30;100.00;;;;;;5005921;28;19930;-68
2024/02/07 04:08:52;;;;;;;;;;;4.30;100.00;;;;;;5003493;28;19930;-67
2024/02/07 05:16:55;;;;;;;;;;;4.70;100.00;;;;;;5010997;28;19937;-68
2024/02/07 05:19:21;;;;;;;;;;;4.80;100.00;;;;;;5011997;28;20016;-68
2024/02/07 05:21:48;;;;;;;;;;;4.70;100.00;;;;;;5000468;28;19936;-68
2024/02/07 05:24:16;;;;;;;;;;;4.70;100.00;;;;;;5005757;28;19934;-68
2024/02/07 05:26:42;;;;;;;;;;;4.70;100.00;;;;;;5008168;28;19929;-69
2024/02/07 05:29:15;;;;;;;;;;;4.70;100.00;;;;;;5011849;28;19929;-68
2024/02/07 05:31:42;;;;;;;;;;;4.70;100.00;;;;;;5004712;28;19932;-68
2024/02/07 05:34:09;;;;;;;;;;;4.70;100.00;;;;;;5006227;28;19929;-67
2024/02/07 05:36:37;;;;;;;;;;;4.70;100.00;;;;;;4988069;28;19929;-68
2024/02/07 05:39:03;;;;;;;;;;;4.60;100.00;;;;;;5011269;28;20036;-67
2024/02/07 05:41:30;;;;;;;;;;;4.60;100.00;;;;;;5018260;28;19967;-68
2024/02/07 05:43:57;;;;;;;;;;;4.50;100.00;;;;;;5006448;28;20032;-68
2024/02/07 05:46:24;;;;;;;;;;;4.50;100.00;;;;;;5003586;28;19968;-68
2024/02/07 05:48:51;;;;;;;;;;;4.50;100.00;;;;;;5005821;28;20374;-68
2024/02/07 05:51:21;;;;;;;;;;;4.40;100.00;;;;;;4989012;28;19935;-67
2024/02/07 05:53:48;;;;;;;;;;;4.40;100.00;;;;;;4988965;28;19929;-68
2024/02/07 05:56:15;;;;;;;;;;;4.40;100.00;;;;;;5009830;28;19933;-68
2024/02/07 05:58:42;;;;;;;;;;;4.30;100.00;;;;;;5015070;28;20708;-68
2024/02/07 06:01:10;;;;;;;;;;;4.30;100.00;;;;;;4988398;28;19929;-68
2024/02/07 06:03:37;;;;;;;;;;;4.20;100.00;;;;;;5005936;28;19932;-67
2024/02/07 06:06:06;;;;;;;;;;;4.20;100.00;;;;;;5005447;28;20310;-68
2024/02/07 06:08:33;;;;;;;;;;;4.20;100.00;;;;;;5024830;28;19929;-68
2024/02/07 06:11:00;;;;;;;;;;;4.20;100.00;;;;;;4993410;28;20279;-68
2024/02/07 06:13:27;;;;;;;;;;;4.10;100.00;;;;;;4987993;28;20438;-68
2024/02/07 06:15:54;;;;;;;;;;;4.10;100.00;;;;;;5005468;28;20725;-67
2024/02/07 06:18:20;;;;;;;;;;;4.10;100.00;;;;;;5016904;28;20325;-67
2024/02/07 06:20:47;;;;;;;;;;;4.00;100.00;;;;;;5011199;28;19937;-67
2024/02/07 06:23:14;;;;;;;;;;;3.90;100.00;;;;;;5008180;28;19930;-68
2024/02/07 06:25:41;;;;;;;;;;;3.80;100.00;;;;;;5006214;28;19965;-67
2024/02/07 06:28:08;;;;;;;;;;;3.50;100.00;;;;;;4988426;28;19929;-67
2024/02/07 06:30:34;;;;;;;;;;;3.10;100.00;;;;;;5003392;28;20007;-68
2024/02/07 06:33:01;;;;;;;;;;;2.90;100.00;;;;;;5007180;28;19936;-68
2024/02/07 06:35:28;;;;;;;;;;;2.80;100.00;;;;;;5005322;28;20638;-67
2024/02/07 06:37:55;;;;;;;;;;;2.70;100.00;;;;;;5005090;28;20283;-68
2024/02/07 06:40:22;;;;;;;;;;;2.60;100.00;;;;;;5006286;28;20393;-67
2024/02/07 06:42:49;;;;;;;;;;;2.60;100.00;;;;;;5008499;28;19930;-67
2024/02/07 06:45:15;;;;;;;;;;;2.50;100.00;;;;;;5009636;28;20069;-67
2024/02/07 06:47:42;;;;;;;;;;;2.50;100.00;;;;;;5012419;28;19929;-67
2024/02/07 06:50:09;;;;;;;;;;;2.40;100.00;;;;;;4991600;28;20012;-68
2024/02/07 06:52:36;;;;;;;;;;;2.40;100.00;;;;;;4991952;28;19929;-67
2024/02/07 06:55:04;;;;;;;;;;;2.50;100.00;;;;;;5008661;28;20028;-67
2024/02/07 06:57:30;;;;;;;;;;;2.50;100.00;;;;;;5010944;28;20030;-67
2024/02/07 06:59:57;;;;;;;;;;;2.50;100.00;;;;;;5006299;28;20753;-67
2024/02/07 07:02:24;;;;;;;;;;;2.60;100.00;;;;;;5006170;28;19972;-67
2024/02/07 07:04:51;;;;;;;;;;;2.60;100.00;;;;;;5014907;28;19960;-67
2024/02/07 07:07:18;;;;;;;;;;;2.60;100.00;;;;;;5011898;28;19979;-67
2024/02/07 07:09:44;;;;;;;;;;;2.60;100.00;;;;;;5013145;28;19925;-67
2024/02/07 07:12:11;;;;;;;;;;;2.60;100.00;;;;;;4993795;28;19929;-67
2024/02/07 07:14:40;;;;;;;;;;;2.60;100.00;;;;;;5019482;28;19929;-67
2024/02/07 07:17:07;;;;;;;;;;;2.60;100.00;;;;;;5008237;28;19925;-67
2024/02/07 07:19:34;;;;;;;;;;;2.70;100.00;;;;;;4991531;28;19929;-67
2024/02/07 07:22:01;;;;;;;;;;;2.70;100.00;;;;;;4993384;28;19953;-67
2024/02/07 07:24:28;;;;;;;;;;;2.70;100.00;;;;;;5014873;28;19983;-67
2024/02/07 07:26:55;;;;;;;;;;;2.80;100.00;;;;;;5016492;28;19999;-67
2024/02/07 07:29:23;;;;;;;;;;;2.80;100.00;;;;;;5008728;28;20007;-67
2024/02/07 07:31:50;;;;;;;;;;;2.90;100.00;;;;;;5008245;28;19930;-67
2024/02/07 07:34:17;;;;;;;;;;;2.90;100.00;;;;;;5012399;28;19936;-67
2024/02/07 07:36:44;;;;;;;;;;;3.00;100.00;;;;;;5007172;28;19929;-67
2024/02/07 07:39:10;;;;;;;;;;;3.10;100.00;;;;;;5021621;28;19925;-67
2024/02/07 07:41:40;;;;;;;;;;;3.10;100.00;;;;;;5007728;28;19933;-67
2024/02/07 07:44:07;;;;;;;;;;;3.20;100.00;;;;;;5008068;28;19930;-67
2024/02/07 07:46:34;;;;;;;;;;;3.20;100.00;;;;;;5006893;28;19930;-67
2024/02/07 07:49:00;;;;;;;;;;;3.20;100.00;;;;;;5014874;28;19925;-68
2024/02/07 07:51:27;;;;;;;;;;;3.30;100.00;;;;;;5007704;28;19942;-68
2024/02/07 07:53:55;;;;;;;;;;;3.30;100.00;;;;;;4989417;28;19929;-68
2024/02/07 07:56:21;;;;;;;;;;;3.30;100.00;;;;;;5013950;28;20341;-68
2024/02/07 07:58:49;;;;;;;;;;;3.30;100.00;;;;;;5012203;28;19929;-68
2024/02/07 08:01:21;;;;;;;;;;;3.30;100.00;;;;;;4994403;28;19929;-68
2024/02/07 08:03:48;;;;;;;;;;;3.40;100.00;;;;;;5007751;28;19929;-68
2024/02/07 08:06:15;;;;;;;;;;;3.40;100.00;;;;;;5007144;28;19995;-68
2024/02/07 08:08:42;;;;;;;;;;;3.40;100.00;;;;;;5011419;28;19968;-68
2024/02/07 08:11:09;;;;;;;;;;;3.40;100.00;;;;;;5016277;28;19929;-68
2024/02/07 08:13:36;;;;;;;;;;;3.40;100.00;;;;;;4989285;28;19929;-68
2024/02/07 08:16:03;;;;;;;;;;;3.40;100.00;;;;;;5006621;28;19936;-68
2024/02/07 08:18:30;;;;;;;;;;;3.40;100.00;;;;;;5031940;28;19932;-68
2024/02/07 08:20:57;;;;;;;;;;;3.40;100.00;;;;;;4990136;28;20046;-68
2024/02/07 08:23:24;;;;;;;;;;;3.40;100.00;;;;;;5007594;28;20057;-68
2024/02/07 08:25:51;;;;;;;;;;;3.40;100.00;;;;;;5008125;28;19934;-68
2024/02/07 08:28:18;;;;;;;;;;;3.40;100.00;;;;;;5016178;28;19933;-68
2024/02/07 08:30:45;;;;;;;;;;;3.40;100.00;;;;;;5017692;28;19963;-68
2024/02/07 08:33:12;;;;;;;;;;;3.40;100.00;;;;;;5015151;28;19929;-68
2024/02/07 08:35:39;;;;;;;;;;;3.40;100.00;;;;;;5011042;28;19930;-68
2024/02/07 08:38:06;;;;;;;;;;;3.40;100.00;;;;;;5000530;28;19929;-68
2024/02/07 08:40:33;;;;;;;;;;;3.40;100.00;;;;;;4994572;28;19929;-68
2024/02/07 08:43:00;;;;;;;;;;;3.50;100.00;;;;;;5006594;28;19929;-68
2024/02/07 08:45:27;;;;;;;;;;;3.50;100.00;;;;;;5007648;28;19983;-68
2024/02/07 08:47:54;;;;;;;;;;;3.50;100.00;;;;;;5013853;28;20379;-68
2024/02/07 08:50:21;;;;;;;;;;;3.50;100.00;;;;;;4990777;28;19930;-68
2024/02/07 08:52:48;;;;;;;;;;;3.50;100.00;;;;;;5009702;28;19933;-68
2024/02/07 08:55:14;;;;;;;;;;;3.50;100.00;;;;;;5005634;28;20024;-68
2024/02/07 08:57:41;;;;;;;;;;;3.50;100.00;;;;;;5009516;28;19926;-68
2024/02/07 09:00:09;;;;;;;;;;;3.50;100.00;;;;;;5012115;28;20021;-68
2024/02/07 09:02:36;;;;;;;;;;;3.70;100.00;;;;;;5007118;28;19929;-68
2024/02/07 09:05:06;;;;;;;;;;;3.70;100.00;;;;;;5011247;28;19975;-68
2024/02/07 09:07:33;;;;;;;;;;;3.80;100.00;;;;;;4993538;28;19929;-68
2024/02/07 09:10:01;;;;;;;;;;;3.90;100.00;;;;;;5011595;28;19929;-68
2024/02/07 09:12:28;;;;;;;;;;;3.90;100.00;;;;;;5012855;28;20446;-68
2024/02/07 09:14:58;;;;;;;;;;;3.80;100.00;;;;;;5011470;28;19935;-68
2024/02/07 09:17:24;;;;;;;;;;;3.80;100.00;;;;;;5014655;28;20003;-68
2024/02/07 09:19:52;;;;;;;;;;;3.80;100.00;;;;;;5006742;28;19996;-68
2024/02/07 09:22:19;;;;;;;;;;;3.90;100.00;;;;;;5006518;28;19930;-68
2024/02/07 09:24:46;;;;;;;;;;;3.90;100.00;;;;;;5005143;28;19932;-68
2024/02/07 09:27:12;;;;;;;;;;;3.90;100.00;;;;;;5009135;28;19933;-68
2024/02/07 09:29:39;;;;;;;;;;;3.90;100.00;;;;;;5006095;28;20003;-68
2024/02/07 09:32:06;;;;;;;;;;;3.80;100.00;;;;;;5005799;28;19929;-68
2024/02/07 09:34:33;;;;;;;;;;;3.80;100.00;;;;;;4991978;28;20273;-68
2024/02/07 09:37:00;;;;;;;;;;;3.80;100.00;;;;;;5006085;28;19929;-68
2024/02/07 09:39:27;;;;;;;;;;;3.80;100.00;;;;;;5006940;28;19929;-68
2024/02/07 09:41:54;;;;;;;;;;;3.80;100.00;;;;;;5005983;28;19925;-68
2024/02/07 09:44:21;;;;;;;;;;;3.90;100.00;;;;;;5021842;28;20256;-68
2024/02/07 09:46:53;;;;;;;;;;;3.90;100.00;;;;;;5011097;28;20393;-68
2024/02/07 09:49:24;;;;;;;;;;;3.90;100.00;;;;;;5015469;28;20492;-68
2024/02/07 09:51:52;;;;;;;;;;;3.80;100.00;;;;;;5015605;28;19968;-68
2024/02/07 09:54:19;;;;;;;;;;;3.90;100.00;;;;;;5006473;28;19929;-68
2024/02/07 09:56:46;;;;;;;;;;;3.90;100.00;;;;;;5005466;28;19991;-68
2024/02/07 09:59:13;;;;;;;;;;;3.90;100.00;;;;;;5012313;28;19933;-68
2024/02/07 10:01:45;;;;;;;;;;;4.00;100.00;;;;;;4998067;28;20263;-68
2024/02/07 10:04:24;;;;;;;;;;;4.10;100.00;;;;;;5005590;28;19987;-68
2024/02/07 10:06:56;;;;;;;;;;;4.20;100.00;;;;;;5005772;28;19955;-68
2024/02/07 10:09:23;;;;;;;;;;;4.20;100.00;;;;;;5005981;28;20416;-68
2024/02/07 10:11:51;;;;;;;;;;;4.30;100.00;;;;;;5011361;28;19959;-68
2024/02/07 10:14:17;;;;;;;;;;;4.40;100.00;;;;;;5016461;28;19933;-68
2024/02/07 10:16:45;;;;;;;;;;;4.40;100.00;;;;;;5012195;28;19936;-68
2024/02/07 10:19:12;;;;;;;;;;;4.50;100.00;;;;;;5009422;28;19984;-68
2024/02/07 10:21:39;;;;;;;;;;;4.50;100.00;;;;;;5017145;28;19977;-68
2024/02/07 10:24:06;;;;;;;;;;;4.80;100.00;;;;;;5010127;28;19930;-68
2024/02/07 10:26:33;;;;;;;;;;;4.90;100.00;;;;;;4991769;28;19933;-68
2024/02/07 10:29:01;;;;;;;;;;;5.20;100.00;;;;;;5009165;28;19929;-68
2024/02/07 10:31:28;;;;;;;;;;;5.20;100.00;;;;;;5017670;28;20018;-68
2024/02/07 10:33:57;;;;;;;;;;;5.10;100.00;;;;;;5010036;28;19933;-68
2024/02/07 10:36:25;;;;;;;;;;;5.10;100.00;;;;;;5009681;28;19977;-68
2024/02/07 10:38:53;;;;;;;;;;;5.40;100.00;;;;;;5007823;28;19972;-68
2024/02/07 10:41:20;;;;;;;;;;;5.30;100.00;;;;;;5008822;28;19929;-68
2024/02/07 10:43:47;;;;;;;;;;;5.00;100.00;;;;;;5012362;28;19932;-68
2024/02/07 10:46:16;;;;;;;;;;;4.90;100.00;;;;;;4990678;28;20382;-68
2024/02/07 10:48:43;;;;;;;;;;;4.90;100.00;;;;;;4993246;28;19929;-68
2024/02/07 10:51:11;;;;;;;;;;;5.20;100.00;;;;;;4990879;28;19961;-68
2024/02/07 10:53:38;;;;;;;;;;;5.10;100.00;;;;;;5012658;28;20052;-68
2024/02/07 10:56:11;;;;;;;;;;;5.10;100.00;;;;;;5022175;28;19929;-68
2024/02/07 10:58:38;;;;;;;;;;;5.40;100.00;;;;;;5008881;28;20464;-68
2024/02/07 11:01:05;;;;;;;;;;;5.10;100.00;;;;;;5008738;28;19929;-68
2024/02/07 11:03:35;;;;;;;;;;;5.00;100.00;;;;;;5011467;28;19929;-68
2024/02/07 11:06:01;;;;;;;;;;;4.80;100.00;;;;;;5017737;28;19925;-68
2024/02/07 11:08:29;;;;;;;;;;;4.90;100.00;;;;;;5012542;28;19933;-68
2024/02/07 11:10:56;;;;;;;;;;;4.90;100.00;;;;;;5009132;28;19936;-68
2024/02/07 11:13:25;;;;;;;;;;;4.70;100.00;;;;;;5016491;28;19929;-68
2024/02/07 11:15:52;;;;;;;;;;;4.60;100.00;;;;;;4997577;28;19929;-68
2024/02/07 11:18:18;;;;;;;;;;;4.40;100.00;;;;;;5009493;28;20013;-68
2024/02/07 11:20:46;;;;;;;;;;;4.40;100.00;;;;;;5008011;28;20318;-68
2024/02/07 11:23:17;;;;;;;;;;;4.50;100.00;;;;;;4998019;28;20029;-68
2024/02/07 11:25:45;;;;;;;;;;;4.40;100.00;;;;;;5019940;28;19964;-68
2024/02/07 11:28:12;;;;;;;;;;;4.50;100.00;;;;;;5013334;28;19937;-68
2024/02/07 11:30:39;;;;;;;;;;;4.30;100.00;;;;;;5020313;28;19929;-68
2024/02/07 11:33:08;;;;;;;;;;;4.30;100.00;;;;;;5011760;28;19944;-68
2024/02/07 11:35:35;;;;;;;;;;;4.30;100.00;;;;;;5000226;28;19930;-68
2024/02/07 11:38:02;;;;;;;;;;;4.20;100.00;;;;;;5012550;28;19931;-68
2024/02/07 11:40:36;;;;;;;;;;;4.20;100.00;;;;;;5007317;28;19976;-68
2024/02/07 11:43:03;;;;;;;;;;;4.20;100.00;;;;;;5007106;28;19933;-68
2024/02/07 11:45:35;;;;;;;;;;;4.10;100.00;;;;;;5014248;28;19933;-68
2024/02/07 11:48:01;;;;;;;;;;;4.00;100.00;;;;;;5010436;28;19976;-68
2024/02/07 11:50:35;;;;;;;;;;;4.10;100.00;;;;;;4990670;28;20039;-68
2024/02/07 11:53:02;;;;;;;;;;;4.20;100.00;;;;;;5007811;28;19926;-68
2024/02/07 11:55:38;;;;;;;;;;;4.20;100.00;;;;;;5007017;28;19933;-68
2024/02/07 11:58:06;;;;;;;;;;;4.20;100.00;;;;;;5005783;28;19952;-68
2024/02/07 12:00:33;;;;;;;;;;;4.20;100.00;;;;;;5006479;28;19937;-68
2024/02/07 12:03:00;;;;;;;;;;;4.10;100.00;;;;;;5015527;28;19930;-68
2024/02/07 12:05:27;;;;;;;;;;;4.10;100.00;;;;;;5001415;28;19976;-68
2024/02/07 12:07:54;;;;;;;;;;;4.10;100.00;;;;;;5010075;28;19929;-68
2024/02/07 12:10:22;;;;;;;;;;;4.10;100.00;;;;;;5007562;28;19937;-68
2024/02/07 12:12:51;;;;;;;;;;;4.10;100.00;;;;;;5006398;28;20665;-68
2024/02/07 12:15:18;;;;;;;;;;;4.10;100.00;;;;;;5006166;28;19988;-68
2024/02/07 12:17:45;;;;;;;;;;;4.10;100.00;;;;;;4994741;28;19929;-68
2024/02/07 12:20:13;;;;;;;;;;;4.20;100.00;;;;;;5013985;28;20263;-68
2024/02/07 12:22:40;;;;;;;;;;;4.40;100.00;;;;;;5018407;28;19937;-68
2024/02/07 12:25:13;;;;;;;;;;;4.40;100.00;;;;;;5007288;28;19934;-68
2024/02/07 12:27:41;;;;;;;;;;;4.40;100.00;;;;;;5006923;28;19929;-68
2024/02/07 12:30:08;;;;;;;;;;;4.30;100.00;;;;;;4999669;28;19929;-68
2024/02/07 12:32:35;;;;;;;;;;;4.30;100.00;;;;;;5016920;28;19940;-68
2024/02/07 12:35:06;;;;;;;;;;;4.40;100.00;;;;;;4990278;28;19934;-68
2024/02/07 12:37:34;;;;;;;;;;;4.40;100.00;;;;;;5007069;28;19925;-68
2024/02/07 12:40:01;;;;;;;;;;;4.40;100.00;;;;;;5006548;28;19925;-68
2024/02/07 12:42:29;;;;;;;;;;;4.40;100.00;;;;;;5007770;28;19968;-68
2024/02/07 12:44:56;;;;;;;;;;;4.30;100.00;;;;;;5006746;28;20019;-68
2024/02/07 12:47:23;;;;;;;;;;;4.30;100.00;;;;;;5005398;28;20067;-68
2024/02/07 12:49:50;;;;;;;;;;;4.30;100.00;;;;;;5020462;28;19940;-68
2024/02/07 12:52:18;;;;;;;;;;;4.40;100.00;;;;;;5003143;28;19925;-68
2024/02/07 12:54:48;;;;;;;;;;;4.40;100.00;;;;;;5007242;28;19972;-68
2024/02/07 12:57:24;;;;;;;;;;;4.40;100.00;;;;;;5006968;28;19934;-68
2024/02/07 12:59:52;;;;;;;;;;;4.40;100.00;;;;;;5005315;28;19979;-68
2024/02/07 13:02:19;;;;;;;;;;;4.30;100.00;;;;;;4998428;28;19940;-68
2024/02/07 13:04:46;;;;;;;;;;;4.40;100.00;;;;;;5005975;28;19925;-68
2024/02/07 13:07:15;;;;;;;;;;;4.50;100.00;;;;;;5013452;28;19932;-68
2024/02/07 13:09:43;;;;;;;;;;;4.70;100.00;;;;;;5006459;28;19926;-68
2024/02/07 13:12:11;;;;;;;;;;;4.70;100.00;;;;;;5011458;28;19933;-68
2024/02/07 13:14:53;;;;;;;;;;;4.70;100.00;;;;;;4991751;28;19925;-68
2024/02/07 13:17:20;;;;;;;;;;;4.60;100.00;;;;;;5006534;28;19977;-68
2024/02/07 13:19:46;;;;;;;;;;;4.50;100.00;;;;;;5005868;28;19925;-68
2024/02/07 13:22:13;;;;;;;;;;;4.60;100.00;;;;;;4990904;28;19948;-68
2024/02/07 13:24:41;;;;;;;;;;;4.50;100.00;;;;;;5004922;28;20019;-68
2024/02/07 13:27:08;;;;;;;;;;;4.40;100.00;;;;;;5005937;28;20568;-68
2024/02/07 13:29:39;;;;;;;;;;;4.30;100.00;;;;;;5005094;28;19929;-68
2024/02/07 13:32:09;;;;;;;;;;;4.30;100.00;;;;;;5006418;28;20518;-68
2024/02/07 13:34:37;;;;;;;;;;;4.30;100.00;;;;;;5005762;28;19931;-68
2024/02/07 13:37:04;;;;;;;;;;;4.30;100.00;;;;;;5004908;28;19936;-68
2024/02/07 13:39:31;;;;;;;;;;;4.20;100.00;;;;;;5013889;28;21192;-68
2024/02/07 13:41:58;;;;;;;;;;;4.10;100.00;;;;;;5005976;28;19929;-68
2024/02/07 13:44:25;;;;;;;;;;;4.20;100.00;;;;;;4988535;28;20505;-68
2024/02/07 13:46:52;;;;;;;;;;;4.30;100.00;;;;;;5016920;28;19937;-68
2024/02/07 13:49:20;;;;;;;;;;;4.50;100.00;;;;;;5012944;28;20683;-68
2024/02/07 13:51:47;;;;;;;;;;;4.50;100.00;;;;;;5009167;28;20007;-68
2024/02/07 13:54:14;;;;;;;;;;;4.60;100.00;;;;;;5008744;28;19929;-68
2024/02/07 13:56:41;;;;;;;;;;;4.80;100.00;;;;;;5009602;28;20257;-68
2024/02/07 13:59:08;;;;;;;;;;;4.90;100.00;;;;;;5015780;28;19933;-68
2024/02/07 14:01:35;;;;;;;;;;;4.90;100.00;;;;;;5018719;28;19969;-68
2024/02/07 14:04:03;;;;;;;;;;;5.00;100.00;;;;;;5009420;28;19972;-68
2024/02/07 14:06:31;;;;;;;;;;;5.00;100.00;;;;;;5009665;28;20359;-68
2024/02/07 14:08:59;;;;;;;;;;;5.30;100.00;;;;;;5010024;28;19929;-68
2024/02/07 14:11:26;;;;;;;;;;;5.30;100.00;;;;;;5009589;28;19965;-68
2024/02/07 14:13:53;;;;;;;;;;;5.60;100.00;;;;;;5011996;28;20036;-68
2024/02/07 14:16:20;;;;;;;;;;;5.50;100.00;;;;;;5010457;28;20028;-68
2024/02/07 14:18:47;;;;;;;;;;;5.40;100.00;;;;;;5009738;28;20156;-68
2024/02/07 14:21:13;;;;;;;;;;;5.20;100.00;;;;;;5008873;28;19991;-68
2024/02/07 14:23:40;;;;;;;;;;;5.00;100.00;;;;;;4996088;28;19983;-68
2024/02/07 14:26:07;;;;;;;;;;;4.70;100.00;;;;;;5017911;28;19980;-68
2024/02/07 14:28:34;;;;;;;;;;;4.50;100.00;;;;;;5007812;28;20478;-68
2024/02/07 14:31:01;;;;;;;;;;;4.40;100.00;;;;;;5008854;28;20011;-68
2024/02/07 14:33:28;;;;;;;;;;;4.40;100.00;;;;;;5009387;28;19929;-68
2024/02/07 14:35:55;;;;;;;;;;;4.30;100.00;;;;;;4995764;28;19936;-68
2024/02/07 14:38:22;;;;;;;;;;;4.30;100.00;;;;;;4996683;28;19925;-68
2024/02/07 14:40:49;;;;;;;;;;;4.30;100.00;;;;;;5009863;28;19929;-68
2024/02/07 14:43:16;;;;;;;;;;;4.20;100.00;;;;;;5012225;28;19926;-68
2024/02/07 14:45:43;;;;;;;;;;;4.20;100.00;;;;;;5015717;28;19929;-68
2024/02/07 14:48:09;;;;;;;;;;;4.10;100.00;;;;;;5008599;28;19929;-68
2024/02/07 14:50:39;;;;;;;;;;;4.10;100.00;;;;;;5009731;28;20000;-68
2024/02/07 14:53:07;;;;;;;;;;;4.00;100.00;;;;;;5005332;28;19952;-68
2024/02/07 14:55:36;;;;;;;;;;;3.90;100.00;;;;;;5012126;28;20558;-68
2024/02/07 14:58:02;;;;;;;;;;;3.90;100.00;;;;;;5009025;28;19930;-68
2024/02/07 15:00:29;;;;;;;;;;;3.80;100.00;;;;;;5009200;28;19934;-68
2024/02/07 15:02:58;;;;;;;;;;;3.80;100.00;;;;;;5006713;28;19953;-68
2024/02/07 15:05:24;;;;;;;;;;;3.70;100.00;;;;;;5020467;28;20362;-68
2024/02/07 15:07:52;;;;;;;;;;;3.70;100.00;;;;;;4998935;28;20013;-68
2024/02/07 15:10:18;;;;;;;;;;;3.70;100.00;;;;;;4987003;28;19936;-68
2024/02/07 15:12:45;;;;;;;;;;;3.70;100.00;;;;;;5008430;28;19975;-68
2024/02/07 15:15:12;;;;;;;;;;;3.60;100.00;;;;;;4990981;28;19932;-68
2024/02/07 15:17:41;;;;;;;;;;;3.50;100.00;;;;;;5015447;28;19936;-68
2024/02/07 15:20:08;;;;;;;;;;;3.50;100.00;;;;;;5022894;28;20442;-68
2024/02/07 15:22:35;;;;;;;;;;;3.40;100.00;;;;;;4991130;28;19929;-68
2024/02/07 15:25:02;;;;;;;;;;;3.30;100.00;;;;;;5008802;28;19925;-68
2024/02/07 15:27:29;;;;;;;;;;;3.30;100.00;;;;;;5011485;28;20735;-68
2024/02/07 15:29:55;;;;;;;;;;;3.20;100.00;;;;;;5011758;28;19948;-68
2024/02/07 15:32:22;;;;;;;;;;;3.20;100.00;;;;;;5008290;28;19936;-68
2024/02/07 15:34:49;;;;;;;;;;;3.20;100.00;;;;;;4991572;28;19947;-68
2024/02/07 15:37:16;;;;;;;;;;;3.10;100.00;;;;;;4999336;28;19964;-68
2024/02/07 15:39:43;;;;;;;;;;;3.10;100.00;;;;;;5016790;28;19937;-68
2024/02/07 15:42:10;;;;;;;;;;;3.00;100.00;;;;;;5013336;28;19945;-68